Time;durP1;ratioP1;P1;durP2;ratioP2;P2;SDS_P1;SDS_P2;PMS_P1;PMS_P2;Temp;Humidity;BMP_temperature;BMP_pressure;BME280_temperature;BME280_humidity;BME280_pressure;Samples;Min_cycle;Max_cycle;Signal;HPM_P1;HPM_P2
2023/01/26 00:01:11;;;;;;;85.45;43.58;;;;;;;0.66;100.00;102466.22;5306272;28;20035;-72
2023/01/26 00:03:43;;;;;;;83.90;42.95;;;;;;;0.53;100.00;102465.59;5304257;28;20066;-71
2023/01/26 00:06:17;;;;;;;86.47;44.47;;;;;;;0.54;100.00;102450.97;5306217;28;20015;-71
2023/01/26 00:08:51;;;;;;;84.97;44.47;;;;;;;0.59;100.00;102456.88;5287568;28;20024;-71
2023/01/26 00:11:25;;;;;;;83.55;43.45;;;;;;;0.55;100.00;102450.09;5303667;28;20437;-71
2023/01/26 00:13:58;;;;;;;92.03;45.60;;;;;;;0.57;100.00;102445.72;5307370;28;20039;-71
2023/01/26 00:16:30;;;;;;;86.32;44.28;;;;;;;0.61;100.00;102444.84;5302783;28;20082;-72
2023/01/26 00:19:02;;;;;;;89.28;44.05;;;;;;;0.65;100.00;102442.16;5305548;28;20081;-71
2023/01/26 00:21:33;;;;;;;89.53;44.97;;;;;;;0.62;100.00;102437.06;5311331;28;20019;-71
2023/01/26 00:24:05;;;;;;;87.43;44.25;;;;;;;0.61;100.00;102431.94;5310044;28;20027;-71
2023/01/26 00:26:36;;;;;;;82.43;44.05;;;;;;;0.57;100.00;102435.41;5287767;28;20027;-72
2023/01/26 00:29:08;;;;;;;86.65;44.17;;;;;;;0.57;100.00;102436.28;5309068;28;20030;-71
2023/01/26 00:31:39;;;;;;;76.88;41.83;;;;;;;0.55;100.00;102430.31;5309764;28;20062;-72
2023/01/26 00:34:10;;;;;;;76.10;40.63;;;;;;;0.56;100.00;102432.00;5309124;28;20024;-71
2023/01/26 00:36:41;;;;;;;72.68;40.63;;;;;;;0.50;100.00;102426.97;5309978;28;20073;-72
2023/01/26 00:39:13;;;;;;;69.38;39.72;;;;;;;0.52;100.00;102425.19;5309131;28;20019;-71
2023/01/26 00:44:36;;;;;;;67.55;38.83;;;;;;;0.54;100.00;102417.44;5307930;28;20035;-71
2023/01/26 00:47:10;;;;;;;72.78;40.08;;;;;;;0.59;100.00;102419.06;5306110;28;20020;-71
2023/01/26 00:49:42;;;;;;;73.32;40.85;;;;;;;0.53;100.00;102415.72;5305899;28;20032;-71
2023/01/26 00:52:13;;;;;;;73.55;40.85;;;;;;;0.52;100.00;102408.88;5310496;28;20030;-71
2023/01/26 00:54:44;;;;;;;71.70;40.67;;;;;;;0.53;100.00;102405.41;5311904;28;20024;-71
2023/01/26 00:57:16;;;;;;;68.40;38.47;;;;;;;0.51;100.00;102405.44;5307751;28;20443;-71
2023/01/26 00:59:47;;;;;;;74.47;40.80;;;;;;;0.56;100.00;102397.63;5311207;28;20117;-71
2023/01/26 01:02:19;;;;;;;69.93;41.08;;;;;;;0.62;100.00;102390.63;5307916;28;20058;-71
2023/01/26 01:04:50;;;;;;;71.13;40.15;;;;;;;0.63;100.00;102397.47;5311569;28;20373;-71
2023/01/26 01:07:22;;;;;;;67.85;37.80;;;;;;;0.64;100.00;102391.44;5306522;28;20052;-71
2023/01/26 01:09:53;;;;;;;66.05;38.38;;;;;;;0.55;100.00;102394.19;5307991;28;20030;-71
2023/01/26 01:12:25;;;;;;;68.15;39.67;;;;;;;0.64;100.00;102394.00;5311473;28;20416;-71
2023/01/26 01:14:57;;;;;;;69.32;38.67;;;;;;;0.57;100.00;102374.41;5308231;28;20445;-71
2023/01/26 01:17:28;;;;;;;68.97;40.05;;;;;;;0.66;100.00;102387.13;5306732;28;20030;-71
2023/01/26 01:19:59;;;;;;;70.10;41.00;;;;;;;0.63;100.00;102381.16;5304955;28;20023;-71
2023/01/26 01:22:32;;;;;;;67.32;38.03;;;;;;;0.66;100.00;102397.44;5308044;28;20023;-71
2023/01/26 01:25:04;;;;;;;73.82;39.85;;;;;;;0.60;100.00;102391.53;5308271;28;20085;-71
2023/01/26 01:27:35;;;;;;;67.72;38.42;;;;;;;0.63;100.00;102397.47;5312461;28;20115;-71
2023/01/26 01:30:07;;;;;;;64.15;38.17;;;;;;;0.66;100.00;102389.69;5307657;28;20054;-71
2023/01/26 01:32:38;;;;;;;63.35;36.65;;;;;;;0.69;100.00;102388.78;5309365;28;20050;-72
2023/01/26 01:35:10;;;;;;;67.53;38.90;;;;;;;0.70;100.00;102388.75;5307622;28;20305;-72
2023/01/26 01:37:41;;;;;;;62.38;37.35;;;;;;;0.70;100.00;102382.75;5307328;28;20024;-71
2023/01/26 01:40:12;;;;;;;65.30;38.30;;;;;;;0.71;100.00;102387.88;5305542;28;20053;-71
2023/01/26 01:42:48;;;;;;;64.60;37.35;;;;;;;0.74;100.00;102379.22;5309749;28;20024;-72
2023/01/26 01:45:25;;;;;;;69.07;38.85;;;;;;;0.81;100.00;102395.44;5306205;28;20059;-70
2023/01/26 01:48:00;;;;;;;68.80;37.97;;;;;;;0.80;100.00;102393.75;5308825;28;20070;-71
2023/01/26 01:50:37;;;;;;;63.28;37.75;;;;;;;0.75;100.00;102374.91;5309407;28;20042;-71
2023/01/26 01:53:13;;;;;;;62.28;37.85;;;;;;;0.82;100.00;102387.66;5308085;28;20477;-71
2023/01/26 01:55:45;;;;;;;67.07;38.53;;;;;;;0.73;100.00;102378.38;5307808;28;20024;-71
2023/01/26 01:58:17;;;;;;;65.68;37.90;;;;;;;0.81;100.00;102395.44;5307764;28;20019;-71
2023/01/26 02:00:48;;;;;;;68.22;39.38;;;;;;;0.80;100.00;102394.59;5305699;28;20100;-71
2023/01/26 02:03:20;;;;;;;62.30;37.33;;;;;;;0.82;100.00;102386.81;5308292;28;20031;-71
2023/01/26 02:06:02;;;;;;;60.55;35.78;;;;;;;0.94;100.00;102384.84;5308419;28;20473;-71
2023/01/26 02:08:41;;;;;;;60.90;35.97;;;;;;;0.97;100.00;102381.34;5308816;28;20026;-71
2023/01/26 02:11:17;;;;;;;62.25;35.33;;;;;;;0.91;100.00;102384.03;5304267;28;20032;-71
2023/01/26 02:13:50;;;;;;;59.42;34.83;;;;;;;0.91;100.00;102377.19;5307555;28;20020;-71
2023/01/26 02:16:21;;;;;;;61.72;36.40;;;;;;;0.89;100.00;102372.94;5309526;28;20395;-71
2023/01/26 02:18:53;;;;;;;61.40;35.50;;;;;;;0.95;100.00;102365.91;5308223;28;20026;-71
2023/01/26 02:21:25;;;;;;;64.40;36.38;;;;;;;0.97;100.00;102363.28;5304430;28;20033;-71
2023/01/26 02:23:59;;;;;;;61.50;35.50;;;;;;;0.94;100.00;102360.78;5308169;28;20499;-72
2023/01/26 02:26:35;;;;;;;60.35;36.05;;;;;;;1.02;100.00;102352.88;5308486;28;20392;-71
2023/01/26 02:29:09;;;;;;;60.65;34.67;;;;;;;1.00;100.00;102360.66;5305163;28;20315;-72
2023/01/26 02:31:41;;;;;;;65.50;36.90;;;;;;;0.95;100.00;102357.34;5304509;28;20031;-71
2023/01/26 02:34:13;;;;;;;59.80;34.55;;;;;;;0.93;100.00;102359.06;5290098;28;20547;-71
2023/01/26 02:36:44;;;;;;;61.67;35.95;;;;;;;0.93;100.00;102361.66;5305901;28;20076;-72
2023/01/26 02:39:41;;;;;;;60.50;35.25;;;;;;;1.05;100.00;102356.25;5306063;28;20019;-71
2023/01/26 02:45:04;;;;;;;57.75;33.70;;;;;;;0.92;100.00;102353.06;5308554;28;20028;-71
2023/01/26 02:47:35;;;;;;;54.58;32.70;;;;;;;0.90;100.00;102347.06;5306734;28;20031;-71
2023/01/26 02:50:08;;;;;;;58.65;34.05;;;;;;;0.95;100.00;102353.03;5303128;28;20051;-71
2023/01/26 02:52:39;;;;;;;61.60;35.17;;;;;;;0.97;100.00;102345.22;5288056;28;20024;-71
2023/01/26 02:55:27;;;;;;;58.42;34.72;;;;;;;0.97;100.00;102348.66;5306696;28;20074;-71
2023/01/26 02:58:03;;;;;;;55.78;32.22;;;;;;;1.11;100.00;102353.53;5305371;28;20039;-72
2023/01/26 03:00:36;;;;;;;56.60;32.67;;;;;;;1.04;100.00;102346.81;5306365;28;20123;-72
2023/01/26 03:03:13;;;;;;;57.43;33.33;;;;;;;1.09;100.00;102352.72;5304255;28;20031;-71
2023/01/26 03:05:45;;;;;;;57.13;32.28;;;;;;;1.01;100.00;102336.53;5305212;28;20281;-71
2023/01/26 03:08:17;;;;;;;58.67;33.65;;;;;;;1.00;100.00;102339.16;5305555;28;20515;-71
2023/01/26 03:10:48;;;;;;;55.53;33.00;;;;;;;1.04;100.00;102351.97;5285868;28;20169;-71
2023/01/26 03:13:19;;;;;;;55.15;33.35;;;;;;;1.02;100.00;102345.97;5304784;28;20032;-71
2023/01/26 03:15:53;;;;;;;53.95;32.70;;;;;;;1.03;100.00;102342.53;5305289;28;20012;-71
2023/01/26 03:29:50;;;;;;;50.58;30.30;;;;;;;1.19;100.00;102345.63;5308903;28;20036;-71
2023/01/26 03:32:22;;;;;;;51.55;30.10;;;;;;;1.16;100.00;102336.22;5311769;28;20048;-72
2023/01/26 03:34:53;;;;;;;52.72;32.40;;;;;;;1.21;100.00;102347.31;5310628;28;20470;-71
2023/01/26 03:37:24;;;;;;;50.88;31.55;;;;;;;1.18;100.00;102344.78;5310572;28;20085;-72
2023/01/26 03:56:56;;;;;;;55.38;31.92;;;;;;;1.31;100.00;102329.88;5307102;28;20364;-71
2023/01/26 03:59:39;;;;;;;51.67;30.52;;;;;;;1.27;100.00;102322.22;5308224;28;20428;-71
2023/01/26 04:10:41;;;;;;;51.53;29.25;;;;;;;1.34;100.00;102314.31;5309177;28;20024;-71
2023/01/26 04:21:44;;;;;;;44.70;25.63;;;;;;;1.38;100.00;102320.25;5309383;28;20032;-71
2023/01/26 04:24:15;;;;;;;42.65;24.48;;;;;;;1.37;100.00;102313.41;5306211;28;20028;-71
2023/01/26 04:26:47;;;;;;;39.65;24.95;;;;;;;1.48;100.00;102323.47;5309693;28;20024;-71
2023/01/26 04:29:18;;;;;;;40.35;24.90;;;;;;;1.46;100.00;102318.34;5310947;28;20528;-71
2023/01/26 04:31:49;;;;;;;37.25;22.73;;;;;;;1.46;100.00;102319.19;5307168;28;20451;-72
2023/01/26 04:34:21;;;;;;;40.00;24.23;;;;;;;1.50;100.00;102321.72;5310977;28;20399;-71
2023/01/26 04:36:52;;;;;;;37.42;22.90;;;;;;;1.51;100.00;102318.22;5307574;28;20012;-71
2023/01/26 04:39:23;;;;;;;38.83;23.33;;;;;;;1.51;100.00;102325.97;5311307;28;20026;-71
2023/01/26 04:41:55;;;;;;;36.53;21.90;;;;;;;1.54;100.00;102325.91;5308836;28;20016;-71
2023/01/26 04:44:26;;;;;;;39.45;23.95;;;;;;;1.56;100.00;102319.00;5308108;28;20157;-72
2023/01/26 04:46:57;;;;;;;37.03;23.02;;;;;;;1.56;100.00;102325.00;5292320;28;20024;-71
2023/01/26 04:49:28;;;;;;;34.63;21.75;;;;;;;1.57;100.00;102320.69;5308640;28;20078;-71
2023/01/26 04:52:00;;;;;;;37.97;22.80;;;;;;;1.58;100.00;102322.38;5309488;28;20035;-71
2023/01/26 04:54:31;;;;;;;36.85;21.63;;;;;;;1.58;100.00;102318.06;5310493;28;20496;-71
2023/01/26 04:57:02;;;;;;;35.83;21.38;;;;;;;1.61;100.00;102317.97;5308420;28;20096;-72
2023/01/26 04:59:34;;;;;;;35.38;20.73;;;;;;;1.62;100.00;102318.81;5308382;28;20427;-71
2023/01/26 05:02:05;;;;;;;34.63;20.73;;;;;;;1.64;100.00;102325.66;5308037;28;20056;-71
2023/01/26 05:04:36;;;;;;;33.08;19.92;;;;;;;1.65;100.00;102319.59;5308583;28;20305;-71
2023/01/26 05:07:08;;;;;;;36.10;21.92;;;;;;;1.67;100.00;102323.00;5309210;28;20028;-71
2023/01/26 05:09:39;;;;;;;35.38;20.60;;;;;;;1.64;100.00;102302.41;5309340;28;20026;-71
2023/01/26 05:15:00;;;;;;;33.53;20.80;;;;;;;1.72;100.00;102312.56;5305557;28;20032;-71
2023/01/26 05:17:32;;;;;;;33.25;19.50;;;;;;;1.74;100.00;102322.84;5306725;28;20024;-71
2023/01/26 05:20:03;;;;;;;29.90;19.30;;;;;;;1.73;100.00;102316.00;5308718;28;20034;-71
2023/01/26 05:22:35;;;;;;;35.55;21.00;;;;;;;1.70;100.00;102309.16;5306766;28;20069;-71
2023/01/26 05:25:06;;;;;;;32.17;20.40;;;;;;;1.75;100.00;102303.91;5308159;28;20027;-71
2023/01/26 05:27:38;;;;;;;35.67;20.30;;;;;;;1.75;100.00;102315.09;5305193;28;20401;-71
2023/01/26 05:30:10;;;;;;;31.85;19.92;;;;;;;1.74;100.00;102315.09;5289386;28;20051;-72
2023/01/26 05:32:41;;;;;;;31.70;19.40;;;;;;;1.73;100.00;102316.84;5308445;28;20119;-71
2023/01/26 05:35:13;;;;;;;33.95;20.83;;;;;;;1.77;100.00;102318.47;5307243;28;20102;-71
2023/01/26 05:37:44;;;;;;;32.63;19.70;;;;;;;1.78;100.00;102321.88;5307922;28;20043;-72
2023/01/26 05:40:16;;;;;;;31.25;18.85;;;;;;;1.77;100.00;102321.03;5307310;28;20073;-72
2023/01/26 05:42:47;;;;;;;31.38;19.30;;;;;;;1.77;100.00;102327.94;5307719;28;20485;-71
2023/01/26 05:45:19;;;;;;;31.20;18.75;;;;;;;1.77;100.00;102326.22;5304113;28;20461;-72
2023/01/26 05:47:50;;;;;;;30.30;17.85;;;;;;;1.78;100.00;102321.88;5307818;28;20059;-71
2023/01/26 05:50:22;;;;;;;31.38;19.25;;;;;;;1.82;100.00;102326.09;5306532;28;20431;-71
2023/01/26 05:52:53;;;;;;;30.42;17.90;;;;;;;1.83;100.00;102325.22;5306656;28;20058;-71
2023/01/26 05:55:25;;;;;;;31.00;19.23;;;;;;;1.83;100.00;102327.81;5305030;28;20020;-71
2023/01/26 05:57:57;;;;;;;30.15;19.02;;;;;;;1.83;100.00;102322.66;5287078;28;20020;-71
2023/01/26 06:00:28;;;;;;;29.48;18.25;;;;;;;1.86;100.00;102323.41;5303294;28;20078;-71
2023/01/26 06:02:59;;;;;;;31.73;18.92;;;;;;;1.85;100.00;102323.44;5305279;28;20115;-71
2023/01/26 06:05:31;;;;;;;29.63;17.83;;;;;;;1.88;100.00;102328.53;5303648;28;20473;-71
2023/01/26 06:08:02;;;;;;;30.48;18.45;;;;;;;1.87;100.00;102327.69;5304056;28;20139;-71
2023/01/26 06:10:33;;;;;;;27.92;16.95;;;;;;;1.86;100.00;102332.91;5304761;28;20033;-71
2023/01/26 06:13:04;;;;;;;30.20;17.52;;;;;;;1.86;100.00;102335.50;5305706;28;20056;-71
2023/01/26 06:15:36;;;;;;;31.13;18.20;;;;;;;1.85;100.00;102334.63;5305787;28;20032;-71
2023/01/26 06:18:07;;;;;;;34.63;19.65;;;;;;;1.84;100.00;102338.09;5306035;28;20016;-71
2023/01/26 06:20:38;;;;;;;29.80;17.63;;;;;;;1.85;100.00;102344.94;5305102;28;20393;-71
2023/01/26 06:23:11;;;;;;;30.17;17.98;;;;;;;1.86;100.00;102343.25;5304616;28;20020;-71
2023/01/26 06:25:42;;;;;;;29.90;17.38;;;;;;;1.94;100.00;102342.16;5303369;28;20600;-71
2023/01/26 06:28:13;;;;;;;30.60;17.33;;;;;;;1.95;100.00;102338.69;5305487;28;20020;-71
2023/01/26 06:30:45;;;;;;;30.73;18.45;;;;;;;1.94;100.00;102339.59;5301368;28;20028;-72
2023/01/26 06:33:16;;;;;;;28.25;16.75;;;;;;;1.95;100.00;102336.09;5305033;28;20032;-72
2023/01/26 06:35:47;;;;;;;27.35;17.13;;;;;;;1.92;100.00;102345.66;5298672;28;20023;-72
2023/01/26 06:38:19;;;;;;;28.13;17.52;;;;;;;1.89;100.00;102348.31;5283406;28;20024;-71
2023/01/26 06:40:51;;;;;;;28.92;16.90;;;;;;;1.88;100.00;102344.88;5305371;28;20031;-71
2023/01/26 06:43:22;;;;;;;28.60;17.70;;;;;;;1.88;100.00;102344.88;5305384;28;20032;-72
2023/01/26 06:45:55;;;;;;;28.67;16.60;;;;;;;1.91;100.00;102347.41;5306668;28;20012;-72
2023/01/26 06:48:28;;;;;;;;;;;;;;;2.49;100.00;102357.13;5307774;28;20038;-71
2023/01/26 06:51:15;;;;;;;25.58;14.60;;;;;;;2.06;100.00;102347.91;5297935;28;20426;-71
2023/01/26 06:53:54;;;;;;;26.83;16.38;;;;;;;2.05;100.00;102344.50;5307344;28;20050;-71
2023/01/26 06:56:27;;;;;;;26.30;15.68;;;;;;;1.93;100.00;102348.22;5306223;28;20016;-71
2023/01/26 06:58:58;;;;;;;29.92;16.88;;;;;;;1.90;100.00;102350.88;5304113;28;20078;-71
2023/01/26 07:01:33;;;;;;;28.40;16.55;;;;;;;2.02;100.00;102360.06;5306476;28;20111;-71
2023/01/26 07:04:05;;;;;;;27.08;15.40;;;;;;;1.95;100.00;102346.44;5307911;28;20040;-72
2023/01/26 07:06:36;;;;;;;27.05;15.30;;;;;;;1.94;100.00;102355.09;5305009;28;20063;-71
2023/01/26 07:09:08;;;;;;;29.38;15.70;;;;;;;1.97;100.00;102349.00;5307418;28;20023;-71
2023/01/26 07:11:39;;;;;;;29.67;17.13;;;;;;;1.93;100.00;102355.09;5293956;28;20036;-71
2023/01/26 07:14:10;;;;;;;30.02;17.65;;;;;;;1.97;100.00;102353.28;5305824;28;20020;-71
2023/01/26 07:16:42;;;;;;;27.30;16.30;;;;;;;1.96;100.00;102370.53;5307532;28;20043;-71
2023/01/26 07:19:13;;;;;;;28.58;16.63;;;;;;;1.93;100.00;102368.91;5303235;28;20033;-71
2023/01/26 07:21:44;;;;;;;29.95;17.38;;;;;;;1.95;100.00;102369.69;5303793;28;20024;-71
2023/01/26 07:24:15;;;;;;;30.08;17.25;;;;;;;1.99;100.00;102356.72;5307205;28;20032;-71
2023/01/26 07:26:47;;;;;;;29.55;17.48;;;;;;;1.96;100.00;102370.53;5305513;28;20016;-71
2023/01/26 07:29:18;;;;;;;28.05;16.35;;;;;;;1.98;100.00;102363.63;5305081;28;20523;-72
2023/01/26 07:31:50;;;;;;;28.08;15.65;;;;;;;2.01;100.00;102363.53;5301553;28;20042;-72
2023/01/26 07:34:21;;;;;;;31.58;17.33;;;;;;;2.01;100.00;102365.25;5279076;28;20039;-71
2023/01/26 07:36:52;;;;;;;29.55;17.08;;;;;;;1.96;100.00;102362.78;5279337;28;20385;-72
2023/01/26 07:39:23;;;;;;;29.10;17.10;;;;;;;2.03;100.00;102361.75;5279231;28;20036;-72
2023/01/26 07:41:55;;;;;;;30.42;17.02;;;;;;;2.02;100.00;102366.97;5279012;28;20028;-72
2023/01/26 07:44:26;;;;;;;27.83;16.65;;;;;;;2.02;100.00;102360.06;5279414;28;20017;-72
2023/01/26 07:46:57;;;;;;;32.10;18.23;;;;;;;2.03;100.00;102368.66;5281089;28;20077;-72
2023/01/26 07:49:29;;;;;;;32.45;17.77;;;;;;;2.04;100.00;102366.03;5279793;28;20517;-71
2023/01/26 07:52:01;;;;;;;32.72;18.85;;;;;;;2.00;100.00;102369.56;5282007;28;20032;-71
2023/01/26 07:54:32;;;;;;;31.55;17.95;;;;;;;2.01;100.00;102373.00;5280480;28;20101;-71
2023/01/26 07:57:07;;;;;;;32.25;18.67;;;;;;;2.00;100.00;102382.50;5278760;28;20028;-71
2023/01/26 07:59:38;;;;;;;32.67;18.15;;;;;;;2.00;100.00;102386.81;5276137;28;20028;-71
2023/01/26 08:02:09;;;;;;;30.45;17.55;;;;;;;2.03;100.00;102389.34;5277773;28;20032;-72
2023/01/26 08:04:41;;;;;;;36.05;18.23;;;;;;;2.04;100.00;102391.88;5279999;28;20469;-72
2023/01/26 08:07:12;;;;;;;33.17;18.25;;;;;;;2.03;100.00;102390.19;5282747;28;20027;-71
2023/01/26 08:09:43;;;;;;;29.00;17.33;;;;;;;2.00;100.00;102379.91;5280880;28;20401;-72
2023/01/26 08:12:14;;;;;;;31.77;17.70;;;;;;;2.05;100.00;102392.75;5280672;28;20436;-71
2023/01/26 08:14:46;;;;;;;30.90;18.02;;;;;;;2.06;100.00;102390.13;5281692;28;20445;-72
2023/01/26 08:17:18;;;;;;;36.30;20.38;;;;;;;2.07;100.00;102390.97;5281095;28;20126;-71
2023/01/26 08:19:49;;;;;;;35.25;19.30;;;;;;;2.04;100.00;102404.81;5282169;28;20020;-72
2023/01/26 08:22:21;;;;;;;37.15;18.17;;;;;;;2.04;100.00;102402.22;5282429;28;20566;-72
2023/01/26 08:24:52;;;;;;;32.92;17.88;;;;;;;2.02;100.00;102401.44;5279114;28;20020;-72
2023/01/26 08:27:23;;;;;;;36.63;19.00;;;;;;;2.01;100.00;102404.91;5282064;28;20034;-72
2023/01/26 08:29:55;;;;;;;36.45;19.40;;;;;;;2.02;100.00;102400.59;5279654;28;20028;-72
2023/01/26 08:32:28;;;;;;;34.22;18.33;;;;;;;2.09;100.00;102402.97;5292742;28;20505;-72
2023/01/26 08:35:00;;;;;;;35.42;18.77;;;;;;;2.05;100.00;102401.34;5307852;28;20024;-72
2023/01/26 08:37:32;;;;;;;35.38;19.90;;;;;;;2.05;100.00;102409.13;5305960;28;20260;-72
2023/01/26 08:40:04;;;;;;;36.55;19.67;;;;;;;2.04;100.00;102409.13;5310721;28;20024;-72
2023/01/26 08:42:35;;;;;;;35.90;19.23;;;;;;;2.08;100.00;102403.00;5307990;28;20034;-72
2023/01/26 08:45:07;;;;;;;35.20;19.33;;;;;;;1.92;100.00;102374.94;5293180;22;20131;-76
2023/01/26 08:47:38;;;;;;;37.83;19.95;;;;;;;2.00;100.00;102398.00;5328885;27;20023;-76
2023/01/26 08:50:10;;;;;;;40.35;21.15;;;;;;;2.06;100.00;102404.78;5307542;27;20048;-76
2023/01/26 08:52:41;;;;;;;37.70;19.25;;;;;;;2.09;100.00;102415.06;5307506;27;20027;-76
2023/01/26 08:55:13;;;;;;;41.50;21.70;;;;;;;2.10;100.00;102401.25;5275974;28;20028;-76
2023/01/26 08:57:45;;;;;;;37.60;18.85;;;;;;;2.07;100.00;102406.47;5299118;28;20181;-76
2023/01/26 09:00:17;;;;;;;36.30;19.23;;;;;;;2.12;100.00;102412.38;5279072;28;20486;-76
2023/01/26 09:02:50;;;;;;;38.33;19.45;;;;;;;2.09;100.00;102408.16;5296520;28;20032;-76
2023/01/26 09:05:21;;;;;;;41.22;20.17;;;;;;;2.13;100.00;102414.94;5296775;28;20435;-76
2023/01/26 09:07:53;;;;;;;42.10;20.00;;;;;;;2.13;100.00;102403.75;5299072;28;20136;-76
2023/01/26 09:10:24;;;;;;;37.13;18.52;;;;;;;2.13;100.00;102402.00;5299921;28;20024;-76
2023/01/26 09:12:59;;;;;;;39.33;20.88;;;;;;;2.20;100.00;102410.47;5298396;28;20055;-77
2023/01/26 09:15:30;;;;;;;37.90;21.05;;;;;;;2.11;100.00;102401.19;5297961;28;20048;-76
2023/01/26 09:18:02;;;;;;;36.50;19.20;;;;;;;2.25;100.00;102411.19;5276050;28;20765;-76
2023/01/26 09:20:33;;;;;;;41.83;20.90;;;;;;;2.24;100.00;102395.75;5277947;28;20047;-77
2023/01/26 09:23:05;;;;;;;39.95;20.55;;;;;;;2.27;100.00;102411.16;5297065;28;20527;-77
2023/01/26 09:25:37;;;;;;;39.67;20.10;;;;;;;2.25;100.00;102403.44;5296528;28;20107;-76
2023/01/26 09:28:08;;;;;;;44.47;20.77;;;;;;;2.34;100.00;102412.69;5296761;28;20059;-76
2023/01/26 09:30:39;;;;;;;45.97;21.17;;;;;;;2.37;100.00;102410.88;5280891;28;20062;-75
2023/01/26 09:33:11;;;;;;;38.65;20.05;;;;;;;2.37;100.00;102417.81;5297584;28;20020;-76
2023/01/26 09:35:42;;;;;;;44.63;20.65;;;;;;;2.36;100.00;102429.03;5295514;28;20595;-76
2023/01/26 09:38:13;;;;;;;43.78;19.40;;;;;;;2.36;100.00;102416.97;5296833;28;20020;-76
2023/01/26 09:41:03;;;;;;;41.10;19.63;;;;;;;2.52;100.00;102420.00;5297054;28;20568;-75
2023/01/26 09:43:41;;;;;;;39.75;19.50;;;;;;;2.42;100.00;102416.81;5296834;28;20032;-76
2023/01/26 09:46:21;;;;;;;40.63;19.65;;;;;;;2.49;100.00;102422.66;5296435;28;20489;-75
2023/01/26 09:49:03;;;;;;;42.55;21.70;;;;;;;2.48;100.00;102420.97;5296205;28;20027;-77
2023/01/26 09:51:43;;;;;;;45.42;21.10;;;;;;;2.49;100.00;102420.06;5279667;28;20027;-76
2023/01/26 09:54:23;;;;;;;38.10;19.33;;;;;;;2.53;100.00;102423.44;5295425;28;20023;-77
2023/01/26 09:56:55;;;;;;;41.80;18.33;;;;;;;2.39;100.00;102421.22;5296807;28;20042;-76
2023/01/26 09:59:40;;;;;;;38.40;19.50;;;;;;;2.51;100.00;102427.81;5297377;28;20016;-77
2023/01/26 10:02:46;;;;;;;43.05;20.35;;;;;;;2.53;100.00;102413.91;5279024;28;20028;-77
2023/01/26 10:05:42;;;;;;;49.50;20.00;;;;;;;2.64;100.00;102424.00;5295895;28;20024;-77
2023/01/26 10:08:17;;;;;;;44.00;20.60;;;;;;;2.42;100.00;102421.09;5259929;28;20421;-77
2023/01/26 10:11:24;;;;;;;49.03;20.55;;;;;;;2.68;100.00;102421.28;5299960;28;20031;-77
2023/01/26 10:14:07;;;;;;;43.35;20.27;;;;;;;2.51;100.00;102420.03;5295740;28;20035;-76
2023/01/26 10:16:39;;;;;;;41.03;21.05;;;;;;;2.44;100.00;102416.75;5296280;28;20346;-76
2023/01/26 10:19:20;;;;;;;48.13;20.45;;;;;;;2.58;100.00;102416.41;5297649;28;20024;-76
2023/01/26 10:21:54;;;;;;;42.75;21.08;;;;;;;2.38;100.00;102398.81;5296466;28;20156;-76
2023/01/26 10:24:25;;;;;;;;;;;;;;;3.04;100.00;102404.81;5293776;28;20483;-76
2023/01/26 10:26:57;;;;;;;41.17;19.35;;;;;;;2.58;100.00;102404.31;5268128;28;19959;-76
2023/01/26 10:29:28;;;;;;;45.83;21.42;;;;;;;2.63;100.00;102411.97;5298048;28;20043;-76
2023/01/26 10:31:59;;;;;;;55.58;20.92;;;;;;;2.62;100.00;102420.63;5297462;28;20016;-76
2023/01/26 10:34:31;;;;;;;48.42;22.58;;;;;;;2.70;100.00;102415.25;5297691;28;20020;-76
2023/01/26 10:37:17;;;;;;;44.88;20.58;;;;;;;2.84;100.00;102413.09;5299300;28;20134;-76
2023/01/26 10:40:06;;;;;;;45.35;21.70;;;;;;;2.91;100.00;102425.00;5296493;28;20570;-77
2023/01/26 10:42:38;;;;;;;46.15;23.23;;;;;;;2.66;100.00;102415.31;5296511;28;20060;-77
2023/01/26 10:45:31;;;;;;;46.97;21.03;;;;;;;2.96;100.00;102423.16;5269885;28;20044;-76
2023/01/26 10:48:16;;;;;;;51.92;22.35;;;;;;;2.76;100.00;102420.22;5297114;28;20044;-76
2023/01/26 10:50:48;;;;;;;49.60;22.33;;;;;;;2.77;100.00;102421.94;5296709;28;20039;-76
2023/01/26 10:53:25;;;;;;;46.65;22.35;;;;;;;2.88;100.00;102422.50;5298106;28;20016;-77
2023/01/26 10:56:06;;;;;;;52.60;22.25;;;;;;;2.97;100.00;102429.16;5295896;28;20047;-77
2023/01/26 10:58:40;;;;;;;57.17;22.60;;;;;;;3.00;100.00;102429.94;5279776;28;20027;-76
2023/01/26 11:01:17;;;;;;;49.70;22.55;;;;;;;2.94;100.00;102422.31;5297780;28;20149;-76
2023/01/26 11:04:05;;;;;;;54.20;22.15;;;;;;;3.13;100.00;102422.66;5296666;28;20410;-77
2023/01/26 11:06:37;;;;;;;52.95;23.77;;;;;;;3.06;100.00;102424.56;5278091;28;20036;-77
2023/01/26 11:09:15;;;;;;;65.57;24.30;;;;;;;3.11;100.00;102404.59;5279105;28;20026;-77
2023/01/26 11:11:59;;;;;;;53.20;23.00;;;;;;;3.34;100.00;102409.09;5297484;28;20393;-76
2023/01/26 11:14:31;;;;;;;57.72;23.42;;;;;;;3.34;100.00;102413.44;5295789;28;20028;-76
2023/01/26 11:17:20;;;;;;;60.78;25.63;;;;;;;3.53;100.00;102408.56;5297004;28;20397;-76
2023/01/26 11:20:06;;;;;;;60.13;24.05;;;;;;;3.58;100.00;102411.84;5296754;28;20035;-77
2023/01/26 11:22:57;;;;;;;59.00;24.60;;;;;;;3.69;100.00;102409.78;5296984;28;20024;-76
2023/01/26 11:25:47;;;;;;;58.70;24.08;;;;;;;3.73;100.00;102411.38;5298173;28;20036;-76
2023/01/26 11:28:27;;;;;;;62.15;23.75;;;;;;;3.82;100.00;102421.44;5296752;28;20019;-76
2023/01/26 11:31:29;;;;;;;55.85;23.13;;;;;;;3.80;100.00;102425.00;5298460;28;20059;-76
2023/01/26 11:34:03;;;;;;;58.25;23.58;;;;;;;3.91;100.00;102425.50;5297498;28;20036;-76
2023/01/26 11:36:42;;;;;;;75.80;24.42;;;;;;;4.08;100.00;102417.19;5295869;28;20088;-76
2023/01/26 11:39:14;;;;;;;56.78;23.92;;;;;;;4.06;100.00;102413.81;5297194;28;20024;-77
2023/01/26 11:42:06;;;;;;;60.88;24.55;;;;;;;4.20;100.00;102418.53;5282051;28;20031;-77
2023/01/26 11:44:44;;;;;;;56.03;24.77;;;;;;;4.33;100.00;102414.66;5274905;28;20463;-77
2023/01/26 11:47:53;;;;;;;51.08;20.85;;;;;;;4.48;100.00;102410.69;5306317;28;20105;-77
2023/01/26 11:50:43;;;;;;;56.40;23.10;;;;;;;4.53;100.00;102395.78;5306164;28;20032;-77
2023/01/26 11:53:33;;;;;;;51.67;23.42;;;;;;;4.57;100.00;102399.97;5287230;28;20496;-76
2023/01/26 11:56:34;;;;;;;52.42;21.23;;;;;;;4.74;100.00;102389.88;5302302;28;20031;-76
2023/01/26 11:59:18;;;;;;;61.65;22.35;;;;;;;4.66;100.00;102373.72;5266550;28;20111;-80
2023/01/26 12:01:52;;;;;;;;;;;;;;;5.17;100.00;102390.88;5302944;28;20477;-76
2023/01/26 12:04:23;;;;;;;;;;;;;;;5.32;100.00;102398.09;5284405;28;19934;-77
2023/01/26 12:07:09;;;;;;;52.90;20.50;;;;;;;5.23;100.00;102387.22;5302337;28;20327;-77
2023/01/26 12:09:45;;;;;;;56.10;20.85;;;;;;;5.17;100.00;102375.28;5301594;28;20020;-77
2023/01/26 12:12:23;;;;;;;45.20;18.35;;;;;;;5.24;100.00;102381.97;5300552;28;20035;-76
2023/01/26 12:15:09;;;;;;;45.33;18.65;;;;;;;5.53;100.00;102379.97;5282858;28;20048;-80
2023/01/26 12:17:51;;;;;;;48.53;19.95;;;;;;;5.63;100.00;102365.72;5300833;28;20035;-76
2023/01/26 12:20:44;;;;;;;49.38;19.08;;;;;;;5.84;100.00;102362.25;5299675;28;20042;-78
2023/01/26 12:23:47;;;;;;;40.63;16.92;;;;;;;6.00;100.00;102370.31;5301241;28;20032;-76
2023/01/26 12:26:24;;;;;;;41.60;13.67;;;;;;;6.01;100.00;102358.16;5293893;28;20091;-77
2023/01/26 12:29:10;;;;;;;36.70;11.88;;;;;;;6.13;100.00;102364.59;5300580;28;20020;-78
2023/01/26 12:31:53;;;;;;;33.53;10.10;;;;;;;6.26;100.00;102357.97;5301523;28;20020;-77
2023/01/26 12:34:31;;;;;;;38.72;10.95;;;;;;;6.40;100.00;102350.41;5288847;28;20034;-76
2023/01/26 12:37:33;;;;;;;35.30;10.57;;;;;;;6.55;100.00;102348.91;5301281;28;20092;-77